sensor_id;sensor_type;location;lat;lon;timestamp;P1;durP1;ratioP1;P2;durP2;ratioP2
47575;SDS011;33304;52.456;13.328;2023-04-21T00:00:25;0.63;;;0.63;;
47575;SDS011;33304;52.456;13.328;2023-04-21T00:02:52;0.50;;;0.50;;
47575;SDS011;33304;52.456;13.328;2023-04-21T00:05:20;0.50;;;0.50;;
47575;SDS011;33304;52.456;13.328;2023-04-21T00:07:47;0.50;;;0.50;;
47575;SDS011;33304;52.456;13.328;2023-04-21T00:10:14;0.40;;;0.40;;
47575;SDS011;33304;52.456;13.328;2023-04-21T00:12:41;0.60;;;0.60;;
47575;SDS011;33304;52.456;13.328;2023-04-21T00:15:09;0.57;;;0.57;;
47575;SDS011;33304;52.456;13.328;2023-04-21T00:17:37;0.50;;;0.50;;
47575;SDS011;33304;52.456;13.328;2023-04-21T00:20:05;0.50;;;0.50;;
47575;SDS011;33304;52.456;13.328;2023-04-21T00:22:34;1.17;;;1.17;;
47575;SDS011;33304;52.456;13.328;2023-04-21T00:25:01;0.40;;;0.40;;
47575;SDS011;33304;52.456;13.328;2023-04-21T00:27:28;0.50;;;0.50;;
47575;SDS011;33304;52.456;13.328;2023-04-21T00:29:55;0.70;;;0.70;;
47575;SDS011;33304;52.456;13.328;2023-04-21T00:32:24;0.70;;;0.70;;
47575;SDS011;33304;52.456;13.328;2023-04-21T00:34:51;0.83;;;0.57;;
47575;SDS011;33304;52.456;13.328;2023-04-21T00:37:18;0.40;;;0.40;;
47575;SDS011;33304;52.456;13.328;2023-04-21T00:39:45;0.50;;;0.50;;
47575;SDS011;33304;52.456;13.328;2023-04-21T00:42:14;0.50;;;0.50;;
47575;SDS011;33304;52.456;13.328;2023-04-21T00:44:41;0.40;;;0.40;;
47575;SDS011;33304;52.456;13.328;2023-04-21T00:47:08;0.50;;;0.50;;
47575;SDS011;33304;52.456;13.328;2023-04-21T00:49:37;0.40;;;0.40;;
47575;SDS011;33304;52.456;13.328;2023-04-21T00:52:04;0.50;;;0.50;;
47575;SDS011;33304;52.456;13.328;2023-04-21T00:54:31;0.67;;;0.50;;
47575;SDS011;33304;52.456;13.328;2023-04-21T00:57:01;0.50;;;0.50;;
47575;SDS011;33304;52.456;13.328;2023-04-21T00:59:28;0.40;;;0.40;;
47575;SDS011;33304;52.456;13.328;2023-04-21T01:01:56;0.40;;;0.40;;
47575;SDS011;33304;52.456;13.328;2023-04-21T01:04:23;0.40;;;0.40;;
47575;SDS011;33304;52.456;13.328;2023-04-21T01:06:51;0.73;;;0.73;;
47575;SDS011;33304;52.456;13.328;2023-04-21T01:09:19;0.40;;;0.40;;
47575;SDS011;33304;52.456;13.328;2023-04-21T01:11:59;0.50;;;0.50;;
47575;SDS011;33304;52.456;13.328;2023-04-21T01:14:27;0.50;;;0.50;;
47575;SDS011;33304;52.456;13.328;2023-04-21T01:16:55;0.77;;;0.77;;
47575;SDS011;33304;52.456;13.328;2023-04-21T01:19:23;0.40;;;0.40;;
47575;SDS011;33304;52.456;13.328;2023-04-21T01:21:53;0.50;;;0.50;;
47575;SDS011;33304;52.456;13.328;2023-04-21T01:24:22;0.50;;;0.50;;
47575;SDS011;33304;52.456;13.328;2023-04-21T01:26:49;0.50;;;0.50;;
47575;SDS011;33304;52.456;13.328;2023-04-21T01:29:17;0.70;;;0.70;;
47575;SDS011;33304;52.456;13.328;2023-04-21T01:31:44;0.63;;;0.63;;
47575;SDS011;33304;52.456;13.328;2023-04-21T01:34:12;0.50;;;0.50;;
47575;SDS011;33304;52.456;13.328;2023-04-21T01:36:39;0.67;;;0.67;;
47575;SDS011;33304;52.456;13.328;2023-04-21T01:39:08;0.60;;;0.60;;
47575;SDS011;33304;52.456;13.328;2023-04-21T01:41:35;0.77;;;0.77;;
47575;SDS011;33304;52.456;13.328;2023-04-21T01:44:02;0.70;;;0.70;;
47575;SDS011;33304;52.456;13.328;2023-04-21T01:46:30;0.53;;;0.53;;
47575;SDS011;33304;52.456;13.328;2023-04-21T01:48:57;0.40;;;0.40;;
47575;SDS011;33304;52.456;13.328;2023-04-21T01:51:24;0.60;;;0.60;;
47575;SDS011;33304;52.456;13.328;2023-04-21T01:53:52;0.57;;;0.57;;
47575;SDS011;33304;52.456;13.328;2023-04-21T01:56:21;0.53;;;0.53;;
47575;SDS011;33304;52.456;13.328;2023-04-21T01:58:48;0.60;;;0.60;;
47575;SDS011;33304;52.456;13.328;2023-04-21T02:01:17;0.50;;;0.50;;
47575;SDS011;33304;52.456;13.328;2023-04-21T02:03:44;0.73;;;0.70;;
47575;SDS011;33304;52.456;13.328;2023-04-21T02:06:13;0.50;;;0.50;;
47575;SDS011;33304;52.456;13.328;2023-04-21T02:08:42;0.50;;;0.50;;
47575;SDS011;33304;52.456;13.328;2023-04-21T02:11:09;0.50;;;0.50;;
47575;SDS011;33304;52.456;13.328;2023-04-21T02:13:40;0.50;;;0.50;;
47575;SDS011;33304;52.456;13.328;2023-04-21T02:16:07;0.50;;;0.50;;
47575;SDS011;33304;52.456;13.328;2023-04-21T02:18:35;0.50;;;0.50;;
47575;SDS011;33304;52.456;13.328;2023-04-21T02:21:04;0.50;;;0.50;;
47575;SDS011;33304;52.456;13.328;2023-04-21T02:23:31;0.40;;;0.40;;
47575;SDS011;33304;52.456;13.328;2023-04-21T02:25:59;0.60;;;0.60;;
47575;SDS011;33304;52.456;13.328;2023-04-21T02:28:26;0.40;;;0.40;;
47575;SDS011;33304;52.456;13.328;2023-04-21T02:30:54;0.80;;;0.80;;
47575;SDS011;33304;52.456;13.328;2023-04-21T02:33:22;0.60;;;0.60;;
47575;SDS011;33304;52.456;13.328;2023-04-21T02:35:49;0.47;;;0.47;;
47575;SDS011;33304;52.456;13.328;2023-04-21T02:38:16;0.60;;;0.60;;
47575;SDS011;33304;52.456;13.328;2023-04-21T02:40:43;0.60;;;0.60;;
47575;SDS011;33304;52.456;13.328;2023-04-21T02:43:12;0.60;;;0.60;;
47575;SDS011;33304;52.456;13.328;2023-04-21T02:45:39;0.57;;;0.57;;
47575;SDS011;33304;52.456;13.328;2023-04-21T02:48:07;0.50;;;0.50;;
47575;SDS011;33304;52.456;13.328;2023-04-21T02:50:35;0.90;;;0.90;;
47575;SDS011;33304;52.456;13.328;2023-04-21T02:53:02;1.07;;;1.07;;
47575;SDS011;33304;52.456;13.328;2023-04-21T02:55:29;0.53;;;0.53;;
47575;SDS011;33304;52.456;13.328;2023-04-21T02:57:57;0.87;;;0.87;;
47575;SDS011;33304;52.456;13.328;2023-04-21T03:00:24;0.80;;;0.80;;
47575;SDS011;33304;52.456;13.328;2023-04-21T03:02:51;0.73;;;0.73;;
47575;SDS011;33304;52.456;13.328;2023-04-21T03:05:20;0.80;;;0.70;;
47575;SDS011;33304;52.456;13.328;2023-04-21T03:07:47;0.63;;;0.63;;
47575;SDS011;33304;52.456;13.328;2023-04-21T03:10:14;0.50;;;0.50;;
47575;SDS011;33304;52.456;13.328;2023-04-21T03:12:41;0.50;;;0.50;;
47575;SDS011;33304;52.456;13.328;2023-04-21T03:15:08;0.70;;;0.70;;
47575;SDS011;33304;52.456;13.328;2023-04-21T03:17:37;0.60;;;0.60;;
47575;SDS011;33304;52.456;13.328;2023-04-21T03:20:04;1.13;;;0.70;;
47575;SDS011;33304;52.456;13.328;2023-04-21T03:22:34;0.83;;;0.83;;
47575;SDS011;33304;52.456;13.328;2023-04-21T03:25:02;0.53;;;0.53;;
47575;SDS011;33304;52.456;13.328;2023-04-21T03:27:30;0.50;;;0.50;;
47575;SDS011;33304;52.456;13.328;2023-04-21T03:29:58;0.50;;;0.50;;
47575;SDS011;33304;52.456;13.328;2023-04-21T03:32:25;0.50;;;0.50;;
47575;SDS011;33304;52.456;13.328;2023-04-21T03:34:52;0.50;;;0.50;;
47575;SDS011;33304;52.456;13.328;2023-04-21T03:37:19;0.70;;;0.70;;
47575;SDS011;33304;52.456;13.328;2023-04-21T03:39:49;0.80;;;0.80;;
47575;SDS011;33304;52.456;13.328;2023-04-21T03:42:17;0.60;;;0.60;;
47575;SDS011;33304;52.456;13.328;2023-04-21T03:44:44;0.50;;;0.50;;
47575;SDS011;33304;52.456;13.328;2023-04-21T03:47:12;0.50;;;0.50;;
47575;SDS011;33304;52.456;13.328;2023-04-21T03:49:39;0.50;;;0.50;;
47575;SDS011;33304;52.456;13.328;2023-04-21T03:52:06;0.77;;;0.77;;
47575;SDS011;33304;52.456;13.328;2023-04-21T03:54:33;0.57;;;0.57;;
47575;SDS011;33304;52.456;13.328;2023-04-21T03:57:01;0.60;;;0.60;;
47575;SDS011;33304;52.456;13.328;2023-04-21T03:59:28;0.50;;;0.50;;
47575;SDS011;33304;52.456;13.328;2023-04-21T04:01:55;0.60;;;0.60;;
47575;SDS011;33304;52.456;13.328;2023-04-21T04:04:22;0.53;;;0.53;;
47575;SDS011;33304;52.456;13.328;2023-04-21T04:06:50;0.60;;;0.60;;
47575;SDS011;33304;52.456;13.328;2023-04-21T04:09:17;0.60;;;0.60;;
47575;SDS011;33304;52.456;13.328;2023-04-21T04:11:44;0.60;;;0.60;;
47575;SDS011;33304;52.456;13.328;2023-04-21T04:14:12;0.50;;;0.50;;
47575;SDS011;33304;52.456;13.328;2023-04-21T04:16:39;0.70;;;0.70;;
47575;SDS011;33304;52.456;13.328;2023-04-21T04:19:06;0.70;;;0.70;;
47575;SDS011;33304;52.456;13.328;2023-04-21T04:21:34;0.60;;;0.60;;
47575;SDS011;33304;52.456;13.328;2023-04-21T04:24:01;0.70;;;0.70;;
47575;SDS011;33304;52.456;13.328;2023-04-21T04:26:29;0.50;;;0.50;;
47575;SDS011;33304;52.456;13.328;2023-04-21T04:28:58;0.40;;;0.40;;
47575;SDS011;33304;52.456;13.328;2023-04-21T04:31:28;0.60;;;0.60;;
47575;SDS011;33304;52.456;13.328;2023-04-21T04:33:55;0.80;;;0.80;;
47575;SDS011;33304;52.456;13.328;2023-04-21T04:36:22;0.70;;;0.70;;
47575;SDS011;33304;52.456;13.328;2023-04-21T04:38:49;0.57;;;0.57;;
47575;SDS011;33304;52.456;13.328;2023-04-21T04:41:16;0.50;;;0.50;;
47575;SDS011;33304;52.456;13.328;2023-04-21T04:43:45;0.60;;;0.60;;
47575;SDS011;33304;52.456;13.328;2023-04-21T04:46:12;0.60;;;0.60;;
47575;SDS011;33304;52.456;13.328;2023-04-21T04:48:41;0.70;;;0.70;;
47575;SDS011;33304;52.456;13.328;2023-04-21T04:51:08;0.50;;;0.50;;
47575;SDS011;33304;52.456;13.328;2023-04-21T04:53:35;0.50;;;0.50;;
47575;SDS011;33304;52.456;13.328;2023-04-21T04:56:02;0.60;;;0.60;;
47575;SDS011;33304;52.456;13.328;2023-04-21T04:58:29;0.60;;;0.60;;
47575;SDS011;33304;52.456;13.328;2023-04-21T05:00:56;0.67;;;0.67;;
47575;SDS011;33304;52.456;13.328;2023-04-21T05:03:23;1.23;;;0.60;;
47575;SDS011;33304;52.456;13.328;2023-04-21T05:05:52;1.43;;;1.33;;
47575;SDS011;33304;52.456;13.328;2023-04-21T05:08:20;0.70;;;0.70;;
47575;SDS011;33304;52.456;13.328;2023-04-21T05:10:47;0.50;;;0.50;;
47575;SDS011;33304;52.456;13.328;2023-04-21T05:13:15;0.70;;;0.70;;
47575;SDS011;33304;52.456;13.328;2023-04-21T05:15:42;0.57;;;0.57;;
47575;SDS011;33304;52.456;13.328;2023-04-21T05:18:09;0.50;;;0.50;;
47575;SDS011;33304;52.456;13.328;2023-04-21T05:20:39;0.80;;;0.80;;
47575;SDS011;33304;52.456;13.328;2023-04-21T05:23:08;0.50;;;0.50;;
47575;SDS011;33304;52.456;13.328;2023-04-21T05:25:35;0.50;;;0.50;;
47575;SDS011;33304;52.456;13.328;2023-04-21T05:28:03;0.57;;;0.57;;
47575;SDS011;33304;52.456;13.328;2023-04-21T05:30:30;0.97;;;0.97;;
47575;SDS011;33304;52.456;13.328;2023-04-21T05:32:57;0.60;;;0.60;;
47575;SDS011;33304;52.456;13.328;2023-04-21T05:35:24;0.70;;;0.70;;
47575;SDS011;33304;52.456;13.328;2023-04-21T05:37:51;0.70;;;0.70;;
47575;SDS011;33304;52.456;13.328;2023-04-21T05:40:19;0.90;;;0.90;;
47575;SDS011;33304;52.456;13.328;2023-04-21T05:42:47;0.60;;;0.60;;
47575;SDS011;33304;52.456;13.328;2023-04-21T05:45:14;0.50;;;0.50;;
47575;SDS011;33304;52.456;13.328;2023-04-21T05:47:41;0.83;;;0.83;;
47575;SDS011;33304;52.456;13.328;2023-04-21T05:50:08;1.63;;;0.63;;
47575;SDS011;33304;52.456;13.328;2023-04-21T05:52:35;0.63;;;0.63;;
47575;SDS011;33304;52.456;13.328;2023-04-21T05:55:03;0.60;;;0.60;;
47575;SDS011;33304;52.456;13.328;2023-04-21T05:57:32;0.60;;;0.60;;
47575;SDS011;33304;52.456;13.328;2023-04-21T05:59:59;0.53;;;0.53;;
47575;SDS011;33304;52.456;13.328;2023-04-21T06:02:26;5.43;;;1.03;;
47575;SDS011;33304;52.456;13.328;2023-04-21T06:04:53;0.90;;;0.87;;
47575;SDS011;33304;52.456;13.328;2023-04-21T06:07:20;0.70;;;0.70;;
47575;SDS011;33304;52.456;13.328;2023-04-21T06:09:48;0.40;;;0.40;;
47575;SDS011;33304;52.456;13.328;2023-04-21T06:12:16;0.57;;;0.57;;
47575;SDS011;33304;52.456;13.328;2023-04-21T06:14:44;0.50;;;0.50;;
47575;SDS011;33304;52.456;13.328;2023-04-21T06:17:14;0.50;;;0.50;;
47575;SDS011;33304;52.456;13.328;2023-04-21T06:19:42;0.50;;;0.50;;
47575;SDS011;33304;52.456;13.328;2023-04-21T06:22:09;0.47;;;0.47;;
47575;SDS011;33304;52.456;13.328;2023-04-21T06:24:36;0.50;;;0.50;;
47575;SDS011;33304;52.456;13.328;2023-04-21T06:27:08;0.50;;;0.50;;
47575;SDS011;33304;52.456;13.328;2023-04-21T06:29:36;0.47;;;0.47;;
47575;SDS011;33304;52.456;13.328;2023-04-21T06:32:04;0.50;;;0.50;;
47575;SDS011;33304;52.456;13.328;2023-04-21T06:34:31;0.60;;;0.60;;
47575;SDS011;33304;52.456;13.328;2023-04-21T06:36:58;0.50;;;0.50;;
47575;SDS011;33304;52.456;13.328;2023-04-21T06:39:26;0.60;;;0.60;;
47575;SDS011;33304;52.456;13.328;2023-04-21T06:41:53;0.37;;;0.37;;
47575;SDS011;33304;52.456;13.328;2023-04-21T06:44:25;0.60;;;0.60;;
47575;SDS011;33304;52.456;13.328;2023-04-21T06:46:52;0.43;;;0.43;;
47575;SDS011;33304;52.456;13.328;2023-04-21T06:49:21;0.50;;;0.50;;
47575;SDS011;33304;52.456;13.328;2023-04-21T06:51:48;0.60;;;0.60;;
47575;SDS011;33304;52.456;13.328;2023-04-21T06:54:15;0.60;;;0.60;;
47575;SDS011;33304;52.456;13.328;2023-04-21T06:56:42;0.60;;;0.60;;
47575;SDS011;33304;52.456;13.328;2023-04-21T06:59:09;0.83;;;0.67;;
47575;SDS011;33304;52.456;13.328;2023-04-21T07:01:36;0.77;;;0.77;;
47575;SDS011;33304;52.456;13.328;2023-04-21T07:04:03;0.43;;;0.43;;
47575;SDS011;33304;52.456;13.328;2023-04-21T07:06:32;0.40;;;0.40;;
47575;SDS011;33304;52.456;13.328;2023-04-21T07:08:59;0.50;;;0.50;;
47575;SDS011;33304;52.456;13.328;2023-04-21T07:11:26;0.50;;;0.50;;
47575;SDS011;33304;52.456;13.328;2023-04-21T07:13:53;0.60;;;0.60;;
47575;SDS011;33304;52.456;13.328;2023-04-21T07:16:21;0.40;;;0.40;;
47575;SDS011;33304;52.456;13.328;2023-04-21T07:18:48;0.60;;;0.60;;
47575;SDS011;33304;52.456;13.328;2023-04-21T07:21:16;0.50;;;0.50;;
47575;SDS011;33304;52.456;13.328;2023-04-21T07:23:44;0.57;;;0.57;;
47575;SDS011;33304;52.456;13.328;2023-04-21T07:26:11;0.40;;;0.40;;
47575;SDS011;33304;52.456;13.328;2023-04-21T07:28:38;0.50;;;0.50;;
47575;SDS011;33304;52.456;13.328;2023-04-21T07:31:06;0.50;;;0.50;;
47575;SDS011;33304;52.456;13.328;2023-04-21T07:33:33;0.43;;;0.43;;
47575;SDS011;33304;52.456;13.328;2023-04-21T07:36:00;0.60;;;0.60;;
47575;SDS011;33304;52.456;13.328;2023-04-21T07:38:27;0.80;;;0.80;;
47575;SDS011;33304;52.456;13.328;2023-04-21T07:40:55;0.47;;;0.47;;
47575;SDS011;33304;52.456;13.328;2023-04-21T07:43:22;0.60;;;0.60;;
47575;SDS011;33304;52.456;13.328;2023-04-21T07:45:51;0.70;;;0.70;;
47575;SDS011;33304;52.456;13.328;2023-04-21T07:48:18;0.50;;;0.50;;
47575;SDS011;33304;52.456;13.328;2023-04-21T07:50:45;0.43;;;0.43;;
47575;SDS011;33304;52.456;13.328;2023-04-21T07:53:12;0.70;;;0.70;;
47575;SDS011;33304;52.456;13.328;2023-04-21T07:55:39;0.50;;;0.50;;
47575;SDS011;33304;52.456;13.328;2023-04-21T07:58:08;0.60;;;0.60;;
47575;SDS011;33304;52.456;13.328;2023-04-21T08:00:36;0.60;;;0.60;;
47575;SDS011;33304;52.456;13.328;2023-04-21T08:03:03;0.50;;;0.50;;
47575;SDS011;33304;52.456;13.328;2023-04-21T08:05:30;0.70;;;0.70;;
47575;SDS011;33304;52.456;13.328;2023-04-21T08:07:57;0.60;;;0.60;;
47575;SDS011;33304;52.456;13.328;2023-04-21T08:10:24;0.80;;;0.80;;
47575;SDS011;33304;52.456;13.328;2023-04-21T08:12:51;0.73;;;0.70;;
47575;SDS011;33304;52.456;13.328;2023-04-21T08:15:20;0.97;;;0.97;;
47575;SDS011;33304;52.456;13.328;2023-04-21T08:17:47;0.50;;;0.50;;
47575;SDS011;33304;52.456;13.328;2023-04-21T08:20:14;0.57;;;0.57;;
47575;SDS011;33304;52.456;13.328;2023-04-21T08:22:41;0.77;;;0.77;;
47575;SDS011;33304;52.456;13.328;2023-04-21T08:25:09;0.60;;;0.60;;
47575;SDS011;33304;52.456;13.328;2023-04-21T08:27:36;0.60;;;0.60;;
47575;SDS011;33304;52.456;13.328;2023-04-21T08:30:04;0.60;;;0.60;;
47575;SDS011;33304;52.456;13.328;2023-04-21T08:32:34;0.77;;;0.77;;
47575;SDS011;33304;52.456;13.328;2023-04-21T08:35:01;0.70;;;0.70;;
47575;SDS011;33304;52.456;13.328;2023-04-21T08:37:28;0.60;;;0.60;;
47575;SDS011;33304;52.456;13.328;2023-04-21T08:39:55;0.70;;;0.70;;
47575;SDS011;33304;52.456;13.328;2023-04-21T08:42:22;0.50;;;0.50;;
47575;SDS011;33304;52.456;13.328;2023-04-21T08:44:49;0.60;;;0.60;;
47575;SDS011;33304;52.456;13.328;2023-04-21T08:47:17;0.50;;;0.50;;
47575;SDS011;33304;52.456;13.328;2023-04-21T08:49:47;0.50;;;0.50;;
47575;SDS011;33304;52.456;13.328;2023-04-21T08:52:16;0.60;;;0.60;;
47575;SDS011;33304;52.456;13.328;2023-04-21T08:54:43;0.50;;;0.50;;
47575;SDS011;33304;52.456;13.328;2023-04-21T08:57:16;0.60;;;0.60;;
47575;SDS011;33304;52.456;13.328;2023-04-21T08:59:43;0.73;;;0.73;;
47575;SDS011;33304;52.456;13.328;2023-04-21T09:02:12;0.87;;;0.87;;
47575;SDS011;33304;52.456;13.328;2023-04-21T09:04:41;0.90;;;0.90;;
47575;SDS011;33304;52.456;13.328;2023-04-21T09:07:10;0.77;;;0.77;;
47575;SDS011;33304;52.456;13.328;2023-04-21T09:09:50;0.60;;;0.60;;
47575;SDS011;33304;52.456;13.328;2023-04-21T09:12:18;0.60;;;0.60;;
47575;SDS011;33304;52.456;13.328;2023-04-21T09:14:45;0.60;;;0.60;;
47575;SDS011;33304;52.456;13.328;2023-04-21T09:17:14;0.60;;;0.60;;
47575;SDS011;33304;52.456;13.328;2023-04-21T09:19:42;0.50;;;0.50;;
47575;SDS011;33304;52.456;13.328;2023-04-21T09:22:14;0.50;;;0.50;;
47575;SDS011;33304;52.456;13.328;2023-04-21T09:24:45;0.80;;;0.80;;
47575;SDS011;33304;52.456;13.328;2023-04-21T09:27:13;0.60;;;0.60;;
47575;SDS011;33304;52.456;13.328;2023-04-21T09:29:44;1.10;;;1.10;;
47575;SDS011;33304;52.456;13.328;2023-04-21T09:32:15;1.43;;;1.33;;
47575;SDS011;33304;52.456;13.328;2023-04-21T09:34:43;1.00;;;1.00;;
47575;SDS011;33304;52.456;13.328;2023-04-21T09:37:11;0.63;;;0.63;;
47575;SDS011;33304;52.456;13.328;2023-04-21T09:39:43;0.70;;;0.70;;
47575;SDS011;33304;52.456;13.328;2023-04-21T09:42:12;0.70;;;0.70;;
47575;SDS011;33304;52.456;13.328;2023-04-21T09:44:39;0.87;;;0.87;;
47575;SDS011;33304;52.456;13.328;2023-04-21T09:47:08;0.80;;;0.80;;
47575;SDS011;33304;52.456;13.328;2023-04-21T09:49:37;0.90;;;0.90;;
47575;SDS011;33304;52.456;13.328;2023-04-21T09:52:09;1.20;;;1.10;;
47575;SDS011;33304;52.456;13.328;2023-04-21T09:54:40;0.70;;;0.70;;
47575;SDS011;33304;52.456;13.328;2023-04-21T09:57:15;0.63;;;0.63;;
47575;SDS011;33304;52.456;13.328;2023-04-21T09:59:46;0.70;;;0.70;;
47575;SDS011;33304;52.456;13.328;2023-04-21T10:02:17;0.90;;;0.90;;
47575;SDS011;33304;52.456;13.328;2023-04-21T10:04:45;1.00;;;1.00;;
47575;SDS011;33304;52.456;13.328;2023-04-21T10:07:13;0.83;;;0.83;;
47575;SDS011;33304;52.456;13.328;2023-04-21T10:09:42;1.30;;;1.20;;
47575;SDS011;33304;52.456;13.328;2023-04-21T10:12:14;1.20;;;1.20;;
47575;SDS011;33304;52.456;13.328;2023-04-21T10:14:42;0.80;;;0.80;;
47575;SDS011;33304;52.456;13.328;2023-04-21T10:17:09;0.90;;;0.90;;
47575;SDS011;33304;52.456;13.328;2023-04-21T10:19:37;0.97;;;0.97;;
47575;SDS011;33304;52.456;13.328;2023-04-21T10:22:14;0.90;;;0.90;;
47575;SDS011;33304;52.456;13.328;2023-04-21T10:24:54;1.10;;;1.00;;
47575;SDS011;33304;52.456;13.328;2023-04-21T10:27:32;1.73;;;1.37;;
47575;SDS011;33304;52.456;13.328;2023-04-21T10:30:00;1.20;;;1.20;;
47575;SDS011;33304;52.456;13.328;2023-04-21T10:32:31;1.63;;;1.53;;
47575;SDS011;33304;52.456;13.328;2023-04-21T10:35:07;1.40;;;1.40;;
47575;SDS011;33304;52.456;13.328;2023-04-21T10:37:35;1.40;;;1.40;;
47575;SDS011;33304;52.456;13.328;2023-04-21T10:40:04;1.27;;;1.27;;
47575;SDS011;33304;52.456;13.328;2023-04-21T10:42:34;1.03;;;1.03;;
47575;SDS011;33304;52.456;13.328;2023-04-21T10:45:06;1.10;;;1.10;;
47575;SDS011;33304;52.456;13.328;2023-04-21T10:47:36;1.30;;;1.30;;
47575;SDS011;33304;52.456;13.328;2023-04-21T10:50:11;1.50;;;1.50;;
47575;SDS011;33304;52.456;13.328;2023-04-21T10:52:42;1.10;;;1.10;;
47575;SDS011;33304;52.456;13.328;2023-04-21T10:55:12;1.30;;;1.30;;
47575;SDS011;33304;52.456;13.328;2023-04-21T10:57:42;0.93;;;0.93;;
47575;SDS011;33304;52.456;13.328;2023-04-21T11:00:13;0.90;;;0.90;;
47575;SDS011;33304;52.456;13.328;2023-04-21T11:02:42;0.80;;;0.80;;
47575;SDS011;33304;52.456;13.328;2023-04-21T11:05:09;0.87;;;0.87;;
47575;SDS011;33304;52.456;13.328;2023-04-21T11:07:37;0.80;;;0.80;;
47575;SDS011;33304;52.456;13.328;2023-04-21T11:10:05;0.60;;;0.60;;
47575;SDS011;33304;52.456;13.328;2023-04-21T11:12:35;0.90;;;0.90;;
47575;SDS011;33304;52.456;13.328;2023-04-21T11:15:04;1.07;;;1.07;;
47575;SDS011;33304;52.456;13.328;2023-04-21T11:17:33;1.30;;;1.30;;
47575;SDS011;33304;52.456;13.328;2023-04-21T11:20:02;1.47;;;1.47;;
47575;SDS011;33304;52.456;13.328;2023-04-21T11:22:31;2.20;;;2.10;;
47575;SDS011;33304;52.456;13.328;2023-04-21T11:24:58;1.30;;;1.30;;
47575;SDS011;33304;52.456;13.328;2023-04-21T11:27:26;1.20;;;1.20;;
47575;SDS011;33304;52.456;13.328;2023-04-21T11:29:56;1.20;;;1.20;;
47575;SDS011;33304;52.456;13.328;2023-04-21T11:32:23;0.70;;;0.70;;
47575;SDS011;33304;52.456;13.328;2023-04-21T11:34:51;0.77;;;0.77;;
47575;SDS011;33304;52.456;13.328;2023-04-21T11:37:22;0.90;;;0.90;;
47575;SDS011;33304;52.456;13.328;2023-04-21T11:39:57;1.27;;;0.90;;
47575;SDS011;33304;52.456;13.328;2023-04-21T11:42:24;0.70;;;0.70;;
47575;SDS011;33304;52.456;13.328;2023-04-21T11:44:52;1.30;;;1.20;;
47575;SDS011;33304;52.456;13.328;2023-04-21T11:47:22;0.90;;;0.90;;
47575;SDS011;33304;52.456;13.328;2023-04-21T11:49:51;0.90;;;0.90;;
47575;SDS011;33304;52.456;13.328;2023-04-21T11:52:21;0.90;;;0.90;;
47575;SDS011;33304;52.456;13.328;2023-04-21T11:54:53;1.00;;;1.00;;
47575;SDS011;33304;52.456;13.328;2023-04-21T11:57:21;1.20;;;1.20;;
47575;SDS011;33304;52.456;13.328;2023-04-21T11:59:49;1.10;;;1.10;;
47575;SDS011;33304;52.456;13.328;2023-04-21T12:02:20;1.47;;;1.47;;
47575;SDS011;33304;52.456;13.328;2023-04-21T12:04:59;1.30;;;1.30;;
47575;SDS011;33304;52.456;13.328;2023-04-21T12:07:31;1.40;;;1.40;;
47575;SDS011;33304;52.456;13.328;2023-04-21T12:09:58;1.60;;;1.60;;
47575;SDS011;33304;52.456;13.328;2023-04-21T12:12:26;1.63;;;1.53;;
47575;SDS011;33304;52.456;13.328;2023-04-21T12:14:53;1.00;;;1.00;;
47575;SDS011;33304;52.456;13.328;2023-04-21T12:17:20;1.37;;;1.37;;
47575;SDS011;33304;52.456;13.328;2023-04-21T12:19:49;1.30;;;1.30;;
47575;SDS011;33304;52.456;13.328;2023-04-21T12:22:16;1.60;;;1.50;;
47575;SDS011;33304;52.456;13.328;2023-04-21T12:24:44;0.90;;;0.90;;
47575;SDS011;33304;52.456;13.328;2023-04-21T12:27:12;1.30;;;1.30;;
47575;SDS011;33304;52.456;13.328;2023-04-21T12:29:40;1.53;;;1.53;;
47575;SDS011;33304;52.456;13.328;2023-04-21T12:32:07;1.20;;;1.20;;
47575;SDS011;33304;52.456;13.328;2023-04-21T12:34:35;1.00;;;1.00;;
47575;SDS011;33304;52.456;13.328;2023-04-21T12:37:03;1.10;;;1.10;;
47575;SDS011;33304;52.456;13.328;2023-04-21T12:39:30;1.00;;;1.00;;
47575;SDS011;33304;52.456;13.328;2023-04-21T12:41:57;0.90;;;0.90;;
47575;SDS011;33304;52.456;13.328;2023-04-21T12:44:26;0.90;;;0.90;;
47575;SDS011;33304;52.456;13.328;2023-04-21T12:46:53;1.30;;;1.30;;
47575;SDS011;33304;52.456;13.328;2023-04-21T12:49:21;1.00;;;1.00;;
47575;SDS011;33304;52.456;13.328;2023-04-21T12:51:48;0.80;;;0.80;;
47575;SDS011;33304;52.456;13.328;2023-04-21T12:54:17;1.10;;;1.10;;
47575;SDS011;33304;52.456;13.328;2023-04-21T12:56:44;1.57;;;1.47;;
47575;SDS011;33304;52.456;13.328;2023-04-21T12:59:11;1.60;;;1.50;;
47575;SDS011;33304;52.456;13.328;2023-04-21T13:01:38;1.40;;;1.40;;
47575;SDS011;33304;52.456;13.328;2023-04-21T13:04:07;1.43;;;1.33;;
47575;SDS011;33304;52.456;13.328;2023-04-21T13:06:34;1.30;;;1.30;;
47575;SDS011;33304;52.456;13.328;2023-04-21T13:09:01;1.10;;;1.10;;
47575;SDS011;33304;52.456;13.328;2023-04-21T13:11:29;1.10;;;1.10;;
47575;SDS011;33304;52.456;13.328;2023-04-21T13:13:56;1.30;;;1.20;;
47575;SDS011;33304;52.456;13.328;2023-04-21T13:16:23;1.85;;;1.75;;
47575;SDS011;33304;52.456;13.328;2023-04-21T13:18:50;1.58;;;1.58;;
47575;SDS011;33304;52.456;13.328;2023-04-21T13:21:18;1.83;;;1.73;;
47575;SDS011;33304;52.456;13.328;2023-04-21T13:23:45;2.15;;;2.05;;
47575;SDS011;33304;52.456;13.328;2023-04-21T13:26:12;1.80;;;1.77;;
47575;SDS011;33304;52.456;13.328;2023-04-21T13:28:41;1.50;;;1.50;;
47575;SDS011;33304;52.456;13.328;2023-04-21T13:31:09;1.60;;;1.60;;
47575;SDS011;33304;52.456;13.328;2023-04-21T13:33:36;1.35;;;1.35;;
47575;SDS011;33304;52.456;13.328;2023-04-21T13:36:03;1.38;;;1.38;;
47575;SDS011;33304;52.456;13.328;2023-04-21T13:38:30;1.48;;;1.38;;
47575;SDS011;33304;52.456;13.328;2023-04-21T13:40:58;1.17;;;1.17;;
47575;SDS011;33304;52.456;13.328;2023-04-21T13:43:25;1.10;;;1.10;;
47575;SDS011;33304;52.456;13.328;2023-04-21T13:45:53;1.83;;;1.73;;
47575;SDS011;33304;52.456;13.328;2023-04-21T13:48:20;1.80;;;1.75;;
47575;SDS011;33304;52.456;13.328;2023-04-21T13:50:50;2.42;;;2.33;;
47575;SDS011;33304;52.456;13.328;2023-04-21T13:53:17;3.28;;;3.17;;
47575;SDS011;33304;52.456;13.328;2023-04-21T13:55:45;2.92;;;2.83;;
47575;SDS011;33304;52.456;13.328;2023-04-21T13:58:13;3.50;;;3.38;;
47575;SDS011;33304;52.456;13.328;2023-04-21T14:00:41;3.35;;;3.22;;
47575;SDS011;33304;52.456;13.328;2023-04-21T14:03:10;1.50;;;1.50;;
47575;SDS011;33304;52.456;13.328;2023-04-21T14:05:38;1.10;;;1.10;;
47575;SDS011;33304;52.456;13.328;2023-04-21T14:08:05;1.23;;;1.23;;
47575;SDS011;33304;52.456;13.328;2023-04-21T14:10:32;1.20;;;1.20;;
47575;SDS011;33304;52.456;13.328;2023-04-21T14:12:59;1.35;;;1.25;;
47575;SDS011;33304;52.456;13.328;2023-04-21T14:15:27;1.58;;;1.48;;
47575;SDS011;33304;52.456;13.328;2023-04-21T14:17:54;1.58;;;1.58;;
47575;SDS011;33304;52.456;13.328;2023-04-21T14:20:22;2.50;;;2.40;;
47575;SDS011;33304;52.456;13.328;2023-04-21T14:22:49;2.22;;;2.13;;
47575;SDS011;33304;52.456;13.328;2023-04-21T14:25:16;1.88;;;1.77;;
47575;SDS011;33304;52.456;13.328;2023-04-21T14:27:43;2.70;;;2.60;;
47575;SDS011;33304;52.456;13.328;2023-04-21T14:30:11;2.10;;;2.00;;
47575;SDS011;33304;52.456;13.328;2023-04-21T14:32:39;1.80;;;1.70;;
47575;SDS011;33304;52.456;13.328;2023-04-21T14:35:09;1.83;;;1.73;;
47575;SDS011;33304;52.456;13.328;2023-04-21T14:37:38;1.60;;;1.50;;